Date,TemperatureHighF,TemperatureAvgF,TemperatureLowF,DewpointHighF,DewpointAvgF,DewpointLowF,HumidityHigh,HumidityAvg,HumidityLow,PressureMaxIn,PressureMinIn,WindSpeedMaxMPH,WindSpeedAvgMPH,GustSpeedMaxMPH,PrecipitationSumIn
2013-1-1,79.2,71.0,62.0,63.2,60.5,57.9,91,70,55,30.17,30.02,7,1,12,0.00
2013-1-2,80.5,69.6,58.3,67.5,63.0,57.0,98,81,55,30.07,29.96,6,0,14,0.00
2013-1-3,82.0,71.8,64.2,68.9,66.0,62.4,97,83,61,30.10,30.00,4,0,11,0.00
2013-1-4,80.3,70.8,63.2,70.0,66.4,62.3,99,87,58,30.20,30.08,5,1,10,0.00
2013-1-5,72.8,68.4,63.2,69.7,65.9,61.6,95,92,85,30.23,30.13,6,1,12,0.08
2013-1-6,81.1,71.6,63.2,72.9,67.5,61.7,100,88,68,30.17,30.03,5,1,11,0.00
2013-1-7,75.1,69.9,66.1,70.6,67.8,65.2,99,93,80,30.14,30.05,5,0,10,0.30
2013-1-8,80.3,73.7,69.3,73.9,70.1,67.8,98,89,75,30.18,30.05,6,1,14,0.52
2013-1-9,81.6,75.9,71.8,72.2,69.9,68.2,94,82,70,30.25,30.13,7,2,17,0.02
2013-1-10,79.6,75.2,70.8,69.1,66.5,63.3,89,75,59,30.27,30.16,10,3,19,0.00
2013-1-11,78.8,74.0,70.6,70.2,67.6,66.0,89,81,70,30.23,30.13,8,2,17,0.00
2013-1-12,81.1,73.7,66.8,68.6,66.0,63.2,91,77,62,30.16,30.07,7,2,14,0.00
2013-1-13,80.5,73.4,66.6,68.8,65.1,61.3,92,76,61,30.10,30.05,7,1,17,0.00
2013-1-14,79.9,71.8,63.2,66.3,64.1,60.4,94,78,60,30.14,30.09,4,1,13,0.00
2013-1-15,79.4,72.4,66.9,67.7,65.5,62.6,91,79,64,30.11,30.02,6,1,14,0.00
2013-1-16,81.1,71.7,61.6,69.2,65.7,59.3,98,82,63,30.08,29.99,5,1,11,0.03
2013-1-17,80.1,71.0,60.9,70.7,65.0,51.4,97,82,67,30.06,29.94,12,2,22,0.00
2013-1-18,70.9,62.7,51.6,58.6,52.2,44.7,79,69,58,30.21,30.07,9,3,17,0.00
2013-1-19,70.3,67.9,66.0,67.8,63.8,58.6,97,87,70,30.19,30.08,5,0,11,0.20
2013-1-20,77.9,69.8,62.6,68.8,65.6,62.0,100,87,64,30.12,29.98,7,1,11,0.03
2013-1-21,79.0,70.6,64.3,70.4,66.6,63.1,99,88,71,30.04,29.93,6,0,12,0.22
2013-1-22,75.3,67.2,61.8,63.2,57.9,52.0,94,73,56,30.19,29.98,10,4,20,0.00
2013-1-23,73.5,65.9,59.8,59.2,54.6,51.8,81,68,48,30.27,30.17,8,3,16,0.00
2013-1-24,74.0,64.2,56.5,55.4,51.2,39.6,91,65,40,30.27,30.17,6,2,16,0.00
2013-1-25,74.6,63.6,53.9,59.4,54.6,49.8,94,74,54,30.27,30.15,5,1,12,0.00
2013-1-26,77.0,65.2,57.0,59.2,56.0,49.9,94,74,47,30.23,30.13,5,1,12,0.00
2013-1-27,77.2,68.2,59.9,63.3,58.9,56.7,93,74,50,30.26,30.17,8,2,16,0.00
2013-1-28,79.8,72.9,67.4,66.8,63.7,60.3,85,73,58,30.29,30.20,8,2,18,0.00
2013-1-29,78.1,72.9,69.4,69.5,66.7,64.5,92,81,69,30.20,30.10,4,1,14,0.02
2013-1-30,79.9,73.2,68.6,67.4,64.8,62.6,92,75,62,30.10,29.94,8,2,16,0.00
2013-1-31,70.3,64.7,55.3,69.8,57.2,39.5,99,78,47,30.16,29.92,8,2,18,0.00
2013-2-1,71.5,60.7,51.7,56.0,47.2,36.2,73,61,52,30.25,30.14,10,4,18,0.02
2013-2-2,73.0,61.3,54.2,53.0,46.9,35.2,88,61,46,30.24,30.10,7,1,14,0.00
2013-2-3,72.7,60.8,50.4,53.6,47.3,35.5,93,66,27,30.15,30.04,6,1,16,0.00
2013-2-4,74.4,60.5,49.1,54.5,47.1,37.9,94,64,32,30.12,30.00,5,0,11,0.00
2013-2-5,78.1,63.8,50.8,62.5,56.0,49.0,96,78,44,30.06,29.97,4,0,11,0.00
2013-2-6,78.8,67.5,57.2,65.6,61.0,55.5,98,81,61,30.08,29.99,6,1,14,0.00
2013-2-7,81.1,71.5,61.5,67.1,63.3,58.8,94,76,55,30.05,29.91,7,1,11,0.00
2013-2-8,81.1,70.9,64.0,69.4,64.5,59.4,97,81,51,30.00,29.89,8,1,13,0.00
2013-2-9,79.4,70.0,62.4,65.6,62.3,59.1,97,78,56,30.15,29.99,9,3,16,0.00
2013-2-10,74.4,70.1,65.6,63.6,61.1,58.4,83,74,64,30.24,30.13,10,4,19,0.00
2013-2-11,78.8,70.5,62.7,65.4,62.2,58.8,91,76,62,30.19,30.08,5,1,13,0.00
2013-2-12,85.9,71.6,59.5,69.4,64.0,57.6,98,79,46,30.09,29.94,4,1,12,0.00
2013-2-13,87.8,75.3,65.8,72.4,67.9,63.1,99,80,49,29.98,29.85,6,1,14,0.00
2013-2-14,78.8,68.7,62.4,71.4,66.5,61.1,97,93,76,29.98,29.83,11,2,19,0.00
2013-2-15,70.8,66.0,62.6,67.2,64.1,61.2,98,94,79,30.00,29.91,4,1,12,0.00
2013-2-16,71.1,64.2,54.4,63.0,55.6,43.0,97,76,46,30.05,29.85,11,4,21,0.00
2013-2-17,57.6,50.8,43.3,43.4,28.5,17.5,69,44,24,30.29,30.06,13,4,24,0.00
2013-2-18,69.8,57.9,45.8,55.9,43.3,30.0,71,59,46,30.30,30.18,10,3,21,0.00
2013-2-19,78.3,69.3,55.0,65.4,59.9,51.3,91,73,57,30.18,30.05,6,2,11,2.72
2013-2-20,78.6,69.4,62.0,67.1,63.3,59.1,96,82,56,30.09,29.98,7,1,12,0.00
2013-2-21,81.4,71.0,62.1,69.2,65.0,60.4,97,82,59,30.07,29.97,5,1,12,0.00
2013-2-22,82.2,74.2,66.8,70.6,68.4,64.7,95,83,66,30.07,29.99,6,2,12,0.00
2013-2-23,84.5,75.6,68.8,72.1,69.4,66.9,96,82,63,30.02,29.88,10,2,20,0.77
2013-2-24,86.3,75.7,68.6,73.6,69.8,65.7,99,84,52,29.97,29.86,4,1,8,0.00
2013-2-25,84.1,74.2,65.8,74.3,69.5,64.9,98,86,65,29.88,29.78,7,1,12,0.02
2013-2-26,86.5,77.6,72.7,71.9,70.1,67.8,93,79,57,29.86,29.77,9,2,17,0.00
2013-2-27,75.6,69.1,60.9,73.1,64.5,59.8,97,86,62,29.94,29.83,5,1,11,1.20
2013-2-28,68.3,62.7,58.4,63.3,53.9,46.5,97,74,47,29.98,29.88,6,1,16,0.00
2013-3-1,64.7,61.3,57.3,56.7,50.2,46.7,90,67,54,29.96,29.87,6,1,12,0.00
2013-3-2,65.3,57.3,50.7,49.5,41.2,33.5,78,56,37,30.01,29.93,12,3,24,0.00
2013-3-3,60.2,53.4,48.3,45.1,40.9,35.9,82,64,46,30.13,29.94,9,3,21,0.00
2013-3-4,66.3,53.0,41.5,43.9,35.3,27.8,87,54,24,30.19,30.10,9,2,19,0.00
2013-3-5,76.5,59.0,46.4,57.7,50.8,43.9,95,76,47,30.16,30.06,4,0,10,0.00
2013-3-6,76.5,63.6,53.1,62.7,50.5,32.2,98,67,27,30.07,29.92,12,3,22,0.00
2013-3-7,69.9,57.7,46.7,54.7,44.2,34.6,92,62,35,30.16,30.05,7,2,16,0.00
2013-3-8,75.4,61.5,49.6,52.6,49.2,38.9,94,68,28,30.18,30.08,6,1,11,0.00
2013-3-9,74.6,63.7,51.6,56.9,52.5,48.2,90,68,50,30.16,30.08,7,2,16,0.00
2013-3-10,75.8,68.5,62.0,60.9,55.8,52.1,79,64,50,30.14,30.05,9,3,19,0.00
2013-3-11,78.1,70.4,65.5,61.8,59.5,57.0,79,69,50,30.08,29.93,10,2,17,0.00
2013-3-12,81.6,73.2,66.4,68.2,64.5,60.7,88,75,62,29.97,29.88,6,2,16,0.00
2013-3-13,74.9,65.2,56.3,65.2,53.3,41.6,90,68,33,30.09,29.95,10,3,20,0.00
2013-3-14,70.9,60.2,53.2,52.4,45.4,37.0,90,61,29,30.18,30.06,9,4,18,0.00
2013-3-15,72.5,61.3,51.3,53.2,48.6,43.3,81,65,38,30.23,30.13,8,3,14,0.00
2013-3-16,76.5,62.7,50.4,56.3,52.2,48.3,96,72,43,30.17,30.06,6,1,12,0.00
2013-3-17,76.8,66.2,54.4,62.1,57.5,52.1,95,75,52,30.13,30.00,6,1,14,0.00
2013-3-18,81.4,69.9,61.6,69.9,64.4,58.0,97,83,62,30.05,29.93,6,1,18,0.44
2013-3-19,79.2,71.4,66.3,69.4,66.4,63.1,98,85,62,29.98,29.81,7,1,15,0.00
2013-3-20,83.8,71.6,61.3,69.2,63.1,55.2,98,77,43,29.94,29.77,9,1,20,0.02
2013-3-21,75.4,65.5,54.2,61.5,53.0,42.2,92,68,33,29.92,29.80,7,2,14,0.00
2013-3-22,75.6,65.5,52.2,68.9,58.5,51.0,98,80,58,29.98,29.87,5,1,13,0.02
2013-3-23,88.8,77.1,68.4,73.8,70.3,66.9,97,81,50,29.96,29.76,6,1,11,0.00
2013-3-24,89.7,78.6,71.5,73.4,70.8,65.6,97,79,51,29.86,29.65,13,4,30,0.35
2013-3-25,77.9,72.2,64.0,72.8,57.7,37.7,97,65,30,29.96,29.71,7,2,17,0.03
2013-3-26,66.3,60.3,52.2,42.4,36.9,29.5,56,42,26,30.19,29.96,10,4,20,0.00
2013-3-27,70.3,56.8,45.7,46.6,39.1,32.2,75,53,29,30.23,30.15,8,2,16,0.00
2013-3-28,73.0,60.0,48.6,52.4,44.2,34.4,83,59,28,30.24,30.14,8,2,14,0.00
2013-3-29,75.3,63.2,51.3,53.7,49.4,45.5,85,63,40,30.26,30.18,7,2,17,0.00
2013-3-30,76.1,64.0,53.2,56.9,52.0,48.0,95,68,38,30.24,30.14,7,1,13,0.00
2013-3-31,81.2,68.7,55.9,65.9,60.3,53.3,96,76,53,30.16,30.02,6,1,16,0.00
2013-4-1,88.4,74.6,64.5,70.9,65.1,60.4,97,75,40,30.02,29.90,9,2,22,0.00
2013-4-2,84.1,73.2,65.5,66.5,64.7,61.7,97,77,50,30.06,29.96,6,1,12,0.00
2013-4-3,83.4,74.0,66.3,69.6,66.7,63.7,95,79,59,30.06,29.98,6,1,16,0.00
2013-4-4,84.3,74.4,68.3,72.8,69.1,66.9,97,84,67,30.04,29.89,8,2,18,1.00
2013-4-5,70.6,67.4,64.1,69.5,66.2,62.9,98,96,89,29.99,29.82,7,2,15,0.42
2013-4-6,77.9,68.5,58.4,66.3,61.2,56.7,96,79,56,30.09,29.92,9,3,16,0.00
2013-4-7,79.0,72.6,64.7,65.3,62.7,60.2,91,72,58,30.14,30.03,9,3,17,0.03
2013-4-8,82.2,70.9,59.8,65.4,61.9,58.1,98,75,48,30.14,30.05,9,1,14,0.00
2013-4-9,82.7,74.4,68.0,69.2,66.6,62.1,91,77,53,30.15,30.05,9,3,19,0.00
2013-4-10,84.9,76.6,69.7,73.3,69.9,66.1,90,80,63,30.11,29.99,8,2,16,0.00
2013-4-11,84.6,78.0,74.7,73.5,71.8,70.1,92,82,67,30.02,29.90,7,3,18,0.01
2013-4-12,87.7,79.0,75.8,77.1,74.2,72.7,93,86,68,29.95,29.86,8,3,18,0.12
2013-4-13,85.9,74.6,69.9,76.5,72.1,68.4,98,92,72,29.97,29.87,13,1,21,1.73
2013-4-14,85.2,77.8,69.7,76.5,73.4,69.1,99,87,68,29.97,29.89,7,2,14,0.00
2013-4-15,89.2,76.7,69.0,77.9,72.5,67.6,98,88,64,30.06,29.93,11,1,21,1.33
2013-4-16,86.1,77.3,69.6,76.8,72.4,68.7,99,86,66,30.12,30.03,9,3,17,0.01
2013-4-17,85.4,77.9,71.9,71.0,68.6,66.1,90,74,54,30.11,30.02,8,2,15,0.00
2013-4-18,85.3,78.3,71.8,74.8,71.2,67.2,93,79,64,30.06,29.98,6,2,15,0.00
2013-4-19,85.8,80.2,75.4,74.7,72.5,69.2,93,78,59,30.05,29.96,8,3,16,0.03
2013-4-20,91.6,78.3,71.7,76.2,72.3,66.5,97,83,44,30.09,29.96,10,2,18,0.05
2013-4-21,85.3,77.4,71.5,74.7,71.8,69.8,96,84,66,30.09,29.98,9,2,17,0.00
2013-4-22,86.8,75.7,72.0,71.6,69.7,66.4,94,82,53,30.05,29.93,10,2,19,0.00
2013-4-23,84.0,75.8,67.6,68.4,65.6,61.4,94,72,52,30.09,29.96,10,4,20,0.00
2013-4-24,86.6,76.3,66.1,67.1,63.8,60.5,90,66,47,30.14,30.04,9,2,16,0.00
2013-4-25,84.4,75.1,66.2,66.3,62.8,60.2,90,67,45,30.20,30.08,9,2,17,0.00
2013-4-26,84.1,74.9,64.9,67.0,64.4,61.3,93,71,52,30.22,30.12,11,3,20,0.00
2013-4-27,84.4,76.9,68.5,67.1,64.2,58.1,83,66,44,30.21,30.09,11,4,19,0.00
2013-4-28,84.3,76.8,70.9,66.2,63.8,60.5,78,65,47,30.12,30.00,10,4,19,0.00
2013-4-29,83.8,76.3,69.2,71.3,68.0,63.2,88,76,61,30.04,29.93,7,2,15,0.00
2013-4-30,83.3,74.8,70.2,72.7,70.1,67.5,97,86,65,30.00,29.93,9,1,15,0.15
2013-5-1,84.5,73.8,68.4,74.0,70.1,66.7,98,89,65,30.00,29.93,7,1,13,0.36
2013-5-2,76.4,70.8,67.6,73.3,69.6,66.7,99,96,88,29.95,29.80,11,2,19,2.08
2013-5-3,88.5,73.8,68.2,72.6,69.5,67.6,99,88,54,29.82,29.67,8,2,16,0.59
2013-5-4,87.8,75.9,67.1,72.1,68.6,66.2,99,80,55,29.80,29.69,8,2,14,0.01
2013-5-5,84.1,73.8,67.6,67.7,62.4,51.6,95,70,34,29.93,29.76,10,3,17,0.00
2013-5-6,84.3,72.2,59.1,67.0,61.2,53.6,96,70,47,30.01,29.92,7,1,14,0.00
2013-5-7,86.3,73.3,62.3,64.3,60.3,56.4,84,65,40,30.06,29.97,10,2,16,0.00
2013-5-8,89.0,73.7,60.8,66.7,60.9,54.2,95,68,31,30.14,30.04,6,1,11,0.00
2013-5-9,87.5,76.6,66.0,73.5,67.6,61.2,87,75,52,30.14,30.05,5,1,11,0.00
2013-5-10,88.1,79.4,72.2,74.4,72.1,68.4,96,80,55,30.13,30.01,7,1,15,0.00
2013-5-11,87.3,77.9,72.3,77.3,73.4,69.9,97,87,64,30.07,29.97,7,2,14,0.62
2013-5-12,88.8,76.8,70.6,75.7,72.1,69.1,99,87,58,30.06,29.93,17,1,33,0.63
2013-5-13,88.0,77.8,70.5,72.8,69.1,62.9,98,77,44,30.09,29.99,9,2,16,0.00
2013-5-14,83.6,76.2,69.9,66.4,61.0,56.2,81,61,41,30.18,30.07,9,3,17,0.00
2013-5-15,83.7,75.0,65.9,65.8,62.0,57.5,87,65,45,30.19,30.09,10,3,16,0.00
2013-5-16,85.8,75.5,65.3,67.0,63.5,60.2,92,68,48,30.11,30.04,8,2,15,0.00
2013-5-17,85.0,76.9,68.9,73.9,69.8,64.1,93,79,62,30.09,30.01,9,2,15,0.00
2013-5-18,85.5,77.6,72.1,76.7,72.3,69.1,96,84,69,30.10,30.03,6,1,13,0.60
2013-5-19,88.1,78.8,71.2,72.3,70.4,68.5,95,77,53,30.10,30.00,8,2,14,0.00
2013-5-20,77.4,74.1,69.5,74.0,71.5,66.4,98,92,86,30.09,29.98,11,1,24,0.68
2013-5-21,83.3,75.2,69.2,75.5,71.3,67.3,98,88,69,30.06,29.93,8,2,20,0.57
2013-5-22,86.7,76.3,72.0,76.1,72.0,69.2,96,87,65,29.97,29.90,6,1,14,0.16
2013-5-23,95.5,80.9,72.1,76.1,72.7,66.8,97,78,40,30.00,29.91,7,2,14,0.00
2013-5-24,93.1,82.8,75.3,76.4,72.8,64.6,95,74,44,30.07,29.95,7,2,13,0.00
2013-5-25,87.4,80.5,74.9,75.1,68.9,64.5,94,70,48,30.16,30.04,11,4,19,0.02
2013-5-26,85.8,78.2,69.4,68.6,65.1,60.7,86,65,51,30.17,30.11,10,4,18,0.00
2013-5-27,85.6,78.3,72.4,73.0,69.6,63.6,93,75,64,30.16,30.07,10,5,21,0.29
2013-5-28,83.7,77.1,73.0,74.8,72.9,70.6,95,87,73,30.12,30.05,12,5,25,0.99
2013-5-29,80.5,74.9,70.3,74.5,71.7,68.8,97,90,69,30.10,30.03,10,3,24,2.87
2013-5-30,82.7,77.0,70.9,75.6,72.3,68.3,96,86,71,30.07,30.00,14,6,28,0.20
2013-5-31,85.1,77.9,74.2,76.2,73.7,71.3,96,87,72,30.06,30.00,11,5,20,0.39
2013-6-1,83.6,75.9,73.2,77.5,74.2,72.1,97,94,80,30.03,29.96,7,1,16,2.36
2013-6-2,86.5,78.1,72.1,77.7,74.0,71.2,97,88,71,30.01,29.92,8,0,16,0.00
2013-6-3,83.8,76.8,73.1,77.2,74.2,71.6,96,92,77,30.04,29.91,7,0,14,1.06
2013-6-4,85.0,77.9,73.7,77.6,74.7,72.5,97,90,73,30.05,29.96,6,0,11,0.04
2013-6-5,82.4,79.7,77.5,78.2,76.1,74.2,93,89,83,30.02,29.90,6,2,12,0.07
2013-6-6,85.6,78.4,73.5,79.5,75.5,72.0,97,91,79,29.91,29.77,11,3,26,1.09
2013-6-7,88.2,77.0,73.5,79.5,74.1,72.2,97,91,71,30.00,29.84,9,1,17,0.37
2013-6-8,82.2,77.1,73.7,79.0,75.0,72.6,97,93,83,30.11,29.96,6,1,12,1.11
2013-6-9,87.0,81.3,75.8,76.9,75.2,73.8,94,82,70,30.12,30.04,8,2,15,0.00
2013-6-10,89.9,83.1,78.7,78.9,76.3,74.6,90,81,65,30.09,30.01,8,2,16,0.00
2013-6-11,87.3,81.1,76.2,78.3,76.6,73.7,95,86,73,30.10,30.01,6,0,12,0.11
2013-6-12,88.3,79.1,75.1,78.2,75.9,72.6,96,90,69,30.09,30.02,11,0,22,0.56
2013-6-13,89.9,79.7,74.4,78.1,75.0,72.1,97,86,60,30.05,29.94,6,1,14,0.00
2013-6-14,94.0,81.3,74.7,77.1,73.6,69.1,97,79,51,29.97,29.88,8,2,14,0.00
2013-6-15,93.3,83.1,74.8,78.3,74.6,69.4,95,77,46,30.06,29.93,6,1,12,0.00
2013-6-16,93.3,83.7,76.2,78.5,75.7,74.0,94,78,56,30.09,30.02,7,1,13,0.00
2013-6-17,92.5,83.7,77.2,78.0,75.9,74.1,94,78,59,30.08,30.01,5,1,12,0.00
2013-6-18,91.2,83.8,77.1,77.6,75.7,73.5,94,78,59,30.07,29.98,5,1,12,0.00
2013-6-19,90.9,83.5,77.9,78.1,75.8,74.0,91,78,59,30.05,29.98,4,1,14,0.00
2013-6-20,93.3,81.4,72.2,77.2,73.8,69.7,95,79,54,30.09,30.02,8,1,20,0.04
2013-6-21,91.8,82.4,75.6,76.6,74.2,71.9,95,77,56,30.11,30.03,6,1,12,0.00
2013-6-22,92.0,83.4,75.8,76.1,73.8,72.2,92,74,54,30.10,30.04,8,2,14,0.00
2013-6-23,89.1,82.0,75.7,77.5,74.9,72.1,94,80,63,30.13,30.05,10,2,18,0.10
2013-6-24,91.4,83.7,78.5,76.9,74.1,71.1,85,73,56,30.16,30.08,8,3,16,0.00
2013-6-25,91.9,83.2,77.7,78.5,75.2,72.1,88,77,62,30.13,30.04,8,2,16,0.00
2013-6-26,89.9,82.4,77.8,76.8,75.0,72.7,92,79,59,30.08,30.01,7,1,13,0.02
2013-6-27,87.1,80.5,76.8,78.9,75.4,72.9,93,85,72,30.06,29.95,6,0,11,0.42
2013-6-28,91.3,80.9,73.1,77.8,74.7,70.8,96,83,59,30.00,29.86,11,1,19,1.21
2013-6-29,91.7,79.0,73.4,78.1,75.0,71.4,97,88,57,29.93,29.81,10,0,17,0.34
2013-6-30,88.1,77.9,73.7,78.5,74.9,71.8,96,91,68,29.95,29.85,8,1,14,0.37
2013-7-1,88.1,79.9,75.1,78.2,75.5,72.5,96,87,68,30.04,29.92,8,2,15,0.12
2013-7-2,87.8,81.4,74.8,79.3,76.5,72.3,95,85,73,30.11,29.98,5,1,12,0.02
2013-7-3,87.2,80.3,77.3,79.2,75.8,74.3,92,86,72,30.13,30.05,8,2,20,0.06
2013-7-4,88.2,82.2,76.6,78.7,75.7,72.5,93,81,68,30.15,30.07,7,2,19,0.06
2013-7-5,83.5,78.3,73.1,78.5,75.2,70.7,95,90,80,30.14,30.05,8,2,19,0.67
2013-7-6,87.9,81.3,77.9,77.6,75.0,73.3,89,81,68,30.12,30.03,9,2,19,0.01
2013-7-7,90.1,83.0,76.9,77.8,75.1,73.0,90,78,63,30.10,30.02,11,4,21,0.00
2013-7-8,91.4,82.8,76.0,77.1,73.8,71.1,89,75,55,30.15,30.08,8,2,17,0.00
2013-7-9,87.1,80.4,75.9,76.5,73.5,71.2,89,80,64,30.14,30.05,9,2,16,0.09
2013-7-10,85.5,78.0,70.8,76.5,73.4,68.1,94,86,70,30.09,30.00,6,1,11,0.33
2013-7-11,90.1,81.1,75.6,78.1,74.6,72.5,93,81,61,30.05,29.94,7,1,13,0.00
2013-7-12,90.4,79.4,74.0,77.3,73.9,70.4,93,84,58,29.97,29.90,9,0,16,0.16
2013-7-13,83.9,75.1,72.7,77.6,72.5,70.8,95,92,74,30.03,29.92,5,0,12,1.51
2013-7-14,87.9,77.2,72.5,77.2,73.0,70.2,95,87,64,30.09,29.99,9,1,15,0.13
2013-7-15,89.8,79.4,72.5,77.4,73.1,69.7,94,82,60,30.11,30.01,8,2,15,0.48
2013-7-16,82.7,76.3,72.7,75.2,71.6,68.7,92,86,69,30.15,30.05,11,2,20,0.23
2013-7-17,81.5,77.0,73.7,74.7,72.6,70.7,93,86,77,30.15,30.04,7,1,14,0.10
2013-7-18,86.1,76.9,72.5,77.6,72.7,69.1,93,87,72,30.13,30.06,8,1,18,0.50
2013-7-19,87.5,79.7,73.8,78.3,74.9,71.3,93,86,72,30.13,30.04,6,1,14,0.01
2013-7-20,86.0,80.7,75.8,78.6,75.8,72.2,92,85,77,30.12,30.03,6,1,12,0.09
2013-7-21,86.8,79.1,75.6,79.0,75.1,71.9,93,88,75,30.16,30.04,7,0,12,0.44
2013-7-22,90.2,81.9,75.9,77.5,75.0,72.5,92,80,62,30.14,30.06,4,0,8,0.00
2013-7-23,94.5,83.8,76.5,78.1,74.7,69.5,91,76,45,30.11,29.97,5,1,10,0.00
2013-7-24,95.2,84.6,77.2,77.1,73.7,66.3,89,71,45,30.02,29.91,8,2,15,0.00
2013-7-25,94.0,87.5,80.9,79.2,76.2,74.6,83,70,57,30.01,29.96,9,3,15,0.02
2013-7-26,91.6,82.3,77.4,78.3,75.2,73.5,88,80,59,30.02,29.93,8,2,15,0.04
2013-7-27,93.2,79.2,74.6,78.7,74.3,70.9,92,86,58,30.00,29.93,7,0,11,0.37
2013-7-28,82.6,77.5,72.8,77.6,74.2,69.9,93,90,83,30.08,29.95,7,0,12,1.25
2013-7-29,90.7,81.0,74.9,79.9,75.2,72.1,92,83,65,30.14,30.02,7,1,15,0.00
2013-7-30,91.3,83.7,76.2,79.4,76.4,72.6,89,79,65,30.16,30.08,9,2,14,0.01
2013-7-31,90.9,83.7,78.0,78.9,75.6,72.6,88,77,59,30.11,30.00,8,2,15,0.00
2013-8-1,90.7,82.9,76.7,77.1,74.3,72.4,87,76,57,30.06,29.94,9,2,17,0.00
2013-8-2,91.0,80.4,75.3,77.7,73.5,71.5,89,80,58,30.05,29.92,7,1,14,0.05
2013-8-3,85.1,77.2,72.1,78.2,73.1,68.6,92,88,70,30.13,30.02,11,0,17,0.18
2013-8-4,93.1,80.0,74.6,79.7,74.5,71.9,93,84,60,30.11,29.97,12,1,24,0.10
2013-8-5,92.6,80.5,75.8,79.4,75.0,71.9,93,84,60,30.04,29.94,9,1,20,0.04
2013-8-6,91.5,81.6,76.1,79.7,75.4,72.6,91,82,64,29.98,29.89,6,0,12,0.00
2013-8-7,89.2,82.1,76.8,79.0,75.4,73.1,91,81,69,29.99,29.90,7,1,13,0.04
2013-8-8,90.1,83.1,78.5,78.3,75.6,73.0,88,79,63,30.02,29.93,8,2,17,0.03
2013-8-9,88.6,81.4,78.8,77.6,74.2,71.0,88,79,67,30.07,29.96,10,2,21,0.12
2013-8-10,90.6,83.4,77.5,79.5,75.7,73.1,87,78,63,30.11,30.04,7,2,15,0.00
2013-8-11,91.3,84.4,78.3,78.8,76.0,73.9,87,76,63,30.13,30.06,8,2,14,0.00
2013-8-12,90.9,83.3,76.5,77.2,74.7,72.2,88,76,56,30.11,30.01,8,2,14,0.00
2013-8-13,91.1,83.6,77.5,77.8,74.9,73.4,89,76,59,30.04,29.95,6,1,14,0.00
2013-8-14,91.3,82.4,76.1,77.6,74.3,72.3,90,77,58,30.02,29.92,5,1,13,0.00
2013-8-15,87.9,80.3,74.7,77.4,74.7,71.2,91,83,69,30.06,29.96,4,0,13,0.16
2013-8-16,91.2,83.5,77.9,79.5,76.4,72.9,89,80,64,30.05,29.97,7,1,13,0.00
2013-8-17,90.5,84.6,79.3,79.9,77.3,75.2,88,79,66,30.08,30.00,8,2,16,0.00
2013-8-18,90.1,84.1,79.6,79.1,76.6,74.0,85,79,67,30.08,29.99,9,2,16,0.00
2013-8-19,90.7,84.0,79.2,78.6,76.4,75.0,87,78,65,30.08,29.96,7,2,15,0.00
2013-8-20,91.3,83.9,78.5,78.3,75.5,72.3,89,76,59,30.07,29.98,9,2,18,0.15
2013-8-21,89.0,82.3,77.6,80.1,76.7,73.9,90,83,67,30.07,29.99,9,3,18,0.19
2013-8-22,90.3,83.6,77.8,79.9,76.6,73.3,89,80,64,30.06,29.96,8,2,15,0.08
2013-8-23,89.9,82.3,77.0,79.4,75.7,73.2,90,81,67,30.01,29.94,7,1,14,0.00
2013-8-24,91.5,83.2,76.8,77.9,75.3,71.6,90,78,59,30.11,29.98,7,1,14,0.00
2013-8-25,88.2,81.5,77.2,77.0,74.5,72.1,87,80,65,30.15,30.03,6,2,12,0.00
2013-8-26,88.0,79.8,71.1,78.1,73.7,67.7,92,82,67,30.12,30.01,8,1,14,1.22
2013-8-27,84.9,77.9,73.2,75.9,72.8,70.5,93,85,68,30.05,29.97,4,0,9,0.03
2013-8-28,87.8,78.9,74.5,76.9,73.8,70.8,92,85,68,30.04,29.95,7,1,14,0.53
2013-8-29,89.3,81.1,74.2,78.3,74.5,70.3,90,81,66,30.03,29.92,6,1,13,0.00
2013-8-30,90.3,82.4,75.3,77.3,74.5,70.9,92,78,53,30.00,29.90,5,0,13,0.00
2013-8-31,90.3,79.8,73.6,78.1,73.9,70.2,90,83,61,29.98,29.91,7,0,15,0.10
2013-9-1,88.7,79.6,74.0,77.7,74.4,70.9,93,85,64,30.00,29.93,3,0,9,0.00
2013-9-2,91.9,78.1,73.8,79.2,73.6,71.2,93,87,59,30.06,29.94,17,0,30,2.93
2013-9-3,89.2,79.5,72.7,79.2,74.0,70.6,94,84,63,30.02,29.93,5,0,11,0.00
2013-9-4,88.3,82.0,78.0,80.3,76.8,74.5,90,84,74,30.06,29.95,5,0,12,0.00
2013-9-5,91.8,83.7,78.6,79.3,76.7,74.7,89,80,60,30.07,29.99,7,1,13,0.00
2013-9-6,92.5,83.6,78.0,79.2,76.5,74.8,91,80,60,30.04,29.92,7,1,14,0.01
2013-9-7,87.2,78.4,74.0,78.2,73.8,69.8,91,86,72,29.98,29.90,10,1,17,0.21
2013-9-8,85.4,78.8,73.8,77.9,74.0,71.0,92,86,73,29.95,29.86,9,0,17,0.04
2013-9-9,89.6,80.5,73.4,77.8,74.1,70.9,93,82,63,30.00,29.90,8,2,18,0.18
2013-9-10,87.8,81.2,76.0,77.9,74.5,72.0,89,80,67,30.04,29.95,12,3,20,0.02
2013-9-11,81.4,78.0,73.4,76.5,74.2,70.3,92,88,82,30.07,29.97,9,1,15,0.58
2013-9-12,84.1,79.3,75.6,77.9,74.9,72.0,92,87,76,30.01,29.89,3,0,8,0.00
2013-9-13,89.3,80.8,74.4,79.4,74.8,71.7,93,83,63,29.91,29.80,5,0,11,0.03
2013-9-14,91.1,82.3,75.1,76.9,74.7,72.3,92,79,57,29.97,29.82,7,1,14,0.00
2013-9-15,86.3,79.8,73.2,79.4,75.1,69.6,92,86,77,30.06,29.92,9,1,19,0.55
2013-9-16,84.1,78.4,74.9,77.9,75.0,71.7,92,89,78,30.05,29.96,8,2,17,0.46
2013-9-17,80.1,77.3,74.2,75.9,73.7,71.1,92,89,85,30.04,29.91,7,2,13,0.76
2013-9-18,85.2,78.0,73.8,78.5,73.9,70.6,92,87,75,30.01,29.92,7,1,13,0.42
2013-9-19,87.6,79.6,73.5,77.7,73.9,71.0,93,83,69,30.00,29.92,10,3,16,0.06
2013-9-20,87.7,80.0,73.0,74.7,71.3,69.2,90,76,56,29.99,29.90,9,2,16,0.03
2013-9-21,88.3,79.2,72.1,76.0,72.4,69.0,91,80,64,29.92,29.77,5,1,10,0.01
2013-9-22,92.1,81.8,74.7,78.0,74.5,71.9,92,80,56,29.86,29.75,7,1,14,0.00
2013-9-23,85.8,79.5,76.9,78.9,75.8,74.1,92,88,77,29.98,29.85,5,0,15,0.24
2013-9-24,88.2,79.1,74.8,81.1,75.1,71.3,93,88,73,29.97,29.86,7,1,15,0.47
2013-9-25,87.5,79.4,73.7,79.1,74.0,70.9,92,84,62,29.91,29.78,8,2,18,0.27
2013-9-26,89.8,79.3,75.4,79.6,75.5,72.6,92,88,69,29.86,29.78,12,2,24,0.51
2013-9-27,89.5,80.2,73.5,74.7,72.5,66.6,92,79,48,29.91,29.82,7,2,14,0.01
2013-9-28,86.5,79.2,74.0,75.3,72.5,70.2,90,81,66,29.96,29.87,9,2,16,0.51
2013-9-29,86.5,78.2,71.2,73.2,70.9,68.4,92,79,60,29.96,29.87,7,1,13,0.01
2013-9-30,87.6,78.7,72.1,73.7,71.4,69.2,91,79,60,30.00,29.90,6,1,12,0.00
2013-10-1,87.0,80.7,74.0,75.2,72.5,70.2,89,77,62,30.03,29.95,8,3,16,0.00
2013-10-2,86.0,81.7,78.5,74.3,72.8,71.6,82,75,63,30.04,29.97,10,3,17,0.00
2013-10-3,86.6,81.0,76.4,75.5,73.5,70.4,87,78,60,30.05,29.95,8,2,13,0.00
2013-10-4,87.2,79.7,73.9,74.0,71.7,69.8,90,77,58,30.06,29.98,8,1,15,0.00
2013-10-5,87.1,79.1,71.4,74.3,71.5,68.3,91,78,61,30.03,29.93,8,1,12,0.00
2013-10-6,88.1,80.0,73.5,77.2,72.8,70.4,91,79,59,29.97,29.86,5,1,12,0.00
2013-10-7,90.4,77.7,73.0,76.6,72.2,69.6,92,84,58,29.89,29.80,14,1,27,0.92
2013-10-8,88.2,80.3,74.2,77.1,73.4,70.6,93,80,63,29.93,29.84,8,2,14,0.00
2013-10-9,83.7,77.3,72.0,77.0,72.4,68.7,91,85,75,29.98,29.89,8,2,15,0.03
2013-10-10,86.7,78.4,71.2,74.7,70.9,68.1,91,79,60,30.00,29.93,7,2,15,0.00
2013-10-11,86.0,76.6,69.5,71.7,68.3,66.1,90,77,56,30.01,29.93,7,1,14,0.00
2013-10-12,85.5,76.0,68.2,70.5,68.0,65.2,92,77,54,30.02,29.94,6,1,12,0.00
2013-10-13,86.1,76.9,70.9,70.5,67.1,63.4,90,74,49,30.05,29.96,7,1,15,0.00
2013-10-14,85.5,76.8,69.8,71.2,68.5,66.1,89,77,59,30.01,29.90,7,1,14,0.00
2013-10-15,85.6,77.1,70.8,73.1,70.0,67.4,90,80,60,29.95,29.86,6,1,12,0.00
2013-10-16,86.1,77.1,70.7,72.2,69.7,67.6,90,79,57,29.95,29.88,6,1,13,0.00
2013-10-17,85.5,77.2,71.0,72.8,70.3,67.9,91,80,62,29.96,29.89,5,1,11,0.00
2013-10-18,86.8,77.6,70.9,75.5,71.3,67.8,92,82,67,29.99,29.90,6,1,12,0.00
2013-10-19,89.0,79.8,71.3,75.1,72.4,68.1,92,79,60,29.96,29.87,6,1,14,0.00
2013-10-20,87.7,80.4,74.7,77.8,74.4,71.2,91,83,65,29.96,29.87,4,0,10,0.00
2013-10-21,89.7,81.1,74.3,77.9,74.7,70.9,92,81,63,30.00,29.90,4,0,10,0.00
2013-10-22,90.2,81.5,74.1,78.2,74.9,71.3,92,81,62,29.96,29.82,6,1,13,0.05
2013-10-23,87.0,79.6,75.4,75.3,72.4,68.9,90,79,63,29.95,29.82,8,2,15,0.00
2013-10-24,80.8,76.0,71.1,69.4,65.4,62.4,82,70,60,30.09,29.93,6,2,14,0.00
2013-10-25,82.3,75.0,67.5,66.8,64.4,62.4,85,70,52,30.15,30.07,10,3,21,0.00
2013-10-26,82.8,73.4,66.7,66.3,63.7,62.0,85,73,54,30.15,30.05,6,1,13,0.00
2013-10-27,81.8,72.9,65.1,67.5,63.9,59.8,85,74,57,30.09,30.01,6,1,12,0.00
2013-10-28,83.0,73.5,65.3,67.5,64.5,61.8,90,75,49,30.14,30.05,7,1,14,0.00
2013-10-29,83.4,75.4,66.9,70.5,66.6,63.6,90,75,57,30.17,30.09,10,3,17,0.00
2013-10-30,83.6,77.9,70.7,69.6,67.3,65.4,84,70,55,30.19,30.08,10,4,18,0.00
2013-10-31,84.2,78.8,74.7,73.1,70.4,65.9,88,76,65,30.11,29.99,8,2,16,0.05
2013-11-1,85.9,78.2,70.5,75.7,71.9,67.4,92,82,67,30.01,29.88,6,1,11,0.01
2013-11-2,88.0,77.9,69.7,73.8,69.8,63.4,92,77,52,29.93,29.80,8,1,18,0.00
2013-11-3,80.4,73.8,68.1,66.3,62.9,60.5,83,69,56,30.02,29.89,11,5,23,0.00
2013-11-4,79.8,75.3,69.1,68.5,64.1,58.8,87,69,58,30.08,30.01,13,6,26,0.17
2013-11-5,81.2,78.4,75.1,71.3,69.0,65.4,78,73,66,30.09,30.01,13,8,23,0.00
2013-11-6,83.0,77.5,70.3,70.3,68.5,66.3,88,74,59,30.06,29.99,10,4,20,0.00
2013-11-7,84.4,75.9,69.5,72.5,69.2,66.1,91,80,58,30.01,29.91,5,1,10,0.00
2013-11-8,83.2,75.4,70.6,73.8,69.6,66.4,90,82,64,30.04,29.94,9,4,21,0.75
2013-11-9,77.9,75.6,73.1,71.7,70.6,69.7,90,84,79,30.11,30.01,11,6,23,0.25
2013-11-10,82.9,78.1,75.1,72.9,70.7,68.8,86,78,68,30.12,30.04,8,3,16,0.00
2013-11-11,82.2,75.7,69.9,72.0,68.3,65.6,89,78,67,30.11,30.04,8,2,18,0.00
2013-11-12,82.9,75.4,68.8,70.2,67.6,65.4,89,77,60,30.08,29.96,6,1,14,0.00
2013-11-13,75.3,71.5,67.7,67.7,63.3,55.7,85,76,63,30.21,30.00,14,6,25,0.01
2013-11-14,76.0,71.9,67.9,62.4,58.8,55.8,74,64,56,30.24,30.14,11,6,23,0.00
2013-11-15,79.4,75.7,71.2,69.3,66.6,61.7,78,74,69,30.15,30.03,10,5,23,0.00
2013-11-16,79.0,75.8,72.6,72.3,69.9,67.5,90,82,74,30.09,30.01,7,2,16,0.18
2013-11-17,83.6,77.0,71.6,74.6,70.9,68.2,90,82,72,30.07,30.00,8,2,14,0.02
2013-11-18,79.8,74.5,69.9,73.9,70.5,67.0,92,87,80,30.02,29.91,2,0,7,0.04
2013-11-19,83.7,74.7,70.6,74.4,70.4,67.3,91,87,67,29.94,29.85,6,0,11,0.27
2013-11-20,82.6,75.0,68.5,74.9,70.4,65.8,92,86,76,30.05,29.92,7,1,12,0.01
2013-11-21,81.3,75.7,71.7,74.3,71.1,68.4,91,86,75,30.14,30.04,8,2,17,0.37
2013-11-22,81.0,77.0,74.6,72.2,70.1,68.2,87,79,70,30.15,30.07,10,5,21,0.04
2013-11-23,81.0,75.9,70.2,71.9,69.6,66.3,88,81,71,30.08,29.97,8,2,15,0.00
2013-11-24,80.7,72.3,67.1,70.1,66.6,64.0,91,83,64,30.14,29.98,11,4,21,0.14
2013-11-25,74.3,72.3,70.1,68.2,64.6,60.2,84,77,68,30.20,30.05,12,8,23,0.02
2013-11-26,83.0,76.8,71.4,74.8,71.9,68.0,90,85,74,30.05,29.82,10,4,25,0.06
2013-11-27,76.6,70.5,56.9,73.2,64.3,51.1,92,81,56,30.11,29.78,11,4,23,0.45
2013-11-28,72.7,61.8,47.6,59.0,52.8,43.9,88,73,54,30.24,30.12,9,3,17,0.00
2013-11-29,76.6,68.7,58.4,62.6,59.3,54.9,89,73,55,30.26,30.18,10,3,23,0.00
2013-11-30,76.2,68.8,61.1,69.0,62.4,58.0,91,81,65,30.21,30.10,13,3,22,0.33
2013-12-1,73.4,67.5,61.5,69.9,64.5,58.2,93,90,86,30.10,29.94,5,1,13,0.83
2013-12-2,72.0,66.8,59.5,65.9,63.1,56.6,92,88,73,29.94,29.82,6,1,13,0.00
2013-12-3,78.2,68.4,58.7,65.8,62.5,56.1,93,82,63,30.00,29.89,3,0,9,0.00
2013-12-4,80.6,70.8,63.2,70.3,64.9,60.2,92,82,64,30.09,29.98,3,0,9,0.00
2013-12-5,82.4,72.9,64.4,72.0,67.1,61.4,93,83,68,30.16,30.08,6,1,12,0.00
2013-12-6,82.5,75.6,67.4,71.5,68.6,64.0,89,80,65,30.18,30.09,7,1,14,0.00
2013-12-7,81.3,71.3,65.0,72.8,67.2,62.3,93,87,68,30.22,30.13,7,1,12,0.05
2013-12-14,81.3,77.0,70.9,73.0,70.8,67.8,91,81,72,30.09,29.98,6,2,14,0.03
2013-12-15,81.3,74.7,69.4,75.7,70.6,65.8,93,87,78,30.06,29.93,10,1,20,0.00
2013-12-16,73.7,67.4,60.7,66.0,61.1,57.4,89,80,67,30.16,30.04,7,3,14,0.00
2013-12-17,75.8,65.9,58.2,63.8,58.8,55.6,92,79,60,30.18,30.09,9,2,15,0.00
2013-12-18,74.6,65.0,58.9,59.3,57.5,55.6,92,78,57,30.24,30.14,8,2,15,0.00
2013-12-19,76.4,66.8,56.7,63.4,59.5,53.8,92,78,59,30.24,30.15,9,2,16,0.00
2013-12-20,80.1,73.3,65.5,70.6,66.8,61.3,88,80,70,30.19,30.10,8,2,15,0.00
2013-12-21,82.5,77.0,73.9,73.6,71.1,68.7,87,82,70,30.15,30.06,6,2,15,0.00
2013-12-22,83.7,78.4,76.1,73.1,72.0,70.9,87,81,69,30.16,30.08,8,2,17,0.00
2013-12-23,84.2,77.5,70.4,74.4,71.7,67.3,91,83,69,30.17,30.10,7,2,13,0.00
2013-12-24,79.8,70.4,65.0,73.0,65.7,60.8,95,85,74,30.17,30.09,11,3,20,0.00
2013-12-25,76.5,72.0,69.9,67.6,65.4,63.1,89,80,71,30.17,30.10,10,4,21,0.03
2013-12-26,78.6,74.4,71.8,70.4,68.7,66.2,87,83,74,30.17,30.06,9,2,13,0.00
2013-12-27,80.2,75.2,69.9,71.3,69.2,66.6,90,82,72,30.19,30.09,8,3,18,0.00
2013-12-28,79.4,75.4,71.6,72.2,70.2,67.9,92,84,77,30.17,30.02,10,4,19,0.10
2013-12-29,81.8,76.5,72.6,75.0,72.5,70.5,93,88,78,30.03,29.92,8,2,16,0.00
2013-12-30,77.1,72.1,67.9,71.2,68.5,64.2,94,89,78,30.14,29.98,6,1,13,0.04
2013-12-31,77.4,71.9,66.7,67.3,64.3,62.1,88,77,65,30.23,30.11,10,4,19,0.00
2014-1-1,81.1,75.4,72.7,73.8,69.8,64.8,92,83,75,30.19,30.04,10,3,21,0.00
2014-1-2,85.5,75.3,66.4,72.3,68.4,64.0,94,80,56,30.04,29.86,9,2,18,0.00